Terminal Aerodrome Forecast
Issued by NWS

Home | Current Version | Previous Version | Graphics & Text | Print | Product List | Glossary On
Versions: 1 2 3 4 5 6 7 8 9 10 11 12 13 14 15 16
000
FTUS43 KMPX 171100
TAFRNH
TAF
KRNH 171127Z 1712/1812 30015G21KT P6SM BKN018 OVC025
     FM171600 33014G21KT P6SM OVC020
     FM172200 33014G23KT P6SM BKN030
     FM180300 33009KT P6SM BKN015 OVC020=

USA.gov is the U.S. government's official web portal to all federal, state and local government web resources and services.